sensor_id;sensor_type;location;lat;lon;timestamp;P1;durP1;ratioP1;P2;durP2;ratioP2
14007;SDS011;61651;45.508;12.232;2022-08-01T00:00:10;3.75;;;3.30;;
14007;SDS011;61651;45.508;12.232;2022-08-01T00:03:12;3.83;;;3.53;;
14007;SDS011;61651;45.508;12.232;2022-08-01T00:06:14;5.80;;;3.55;;
14007;SDS011;61651;45.508;12.232;2022-08-01T00:09:18;4.72;;;3.60;;
14007;SDS011;61651;45.508;12.232;2022-08-01T00:12:20;5.15;;;3.35;;
14007;SDS011;61651;45.508;12.232;2022-08-01T00:15:21;4.00;;;3.60;;
14007;SDS011;61651;45.508;12.232;2022-08-01T00:18:24;3.92;;;3.05;;
14007;SDS011;61651;45.508;12.232;2022-08-01T00:21:26;5.07;;;3.88;;
14007;SDS011;61651;45.508;12.232;2022-08-01T00:24:29;4.93;;;4.00;;
14007;SDS011;61651;45.508;12.232;2022-08-01T00:27:31;4.55;;;4.15;;
14007;SDS011;61651;45.508;12.232;2022-08-01T00:30:33;5.60;;;4.18;;
14007;SDS011;61651;45.508;12.232;2022-08-01T00:33:35;4.57;;;3.70;;
14007;SDS011;61651;45.508;12.232;2022-08-01T00:36:37;4.20;;;3.90;;
14007;SDS011;61651;45.508;12.232;2022-08-01T00:39:41;4.60;;;4.20;;
14007;SDS011;61651;45.508;12.232;2022-08-01T00:42:43;4.28;;;3.92;;
14007;SDS011;61651;45.508;12.232;2022-08-01T00:45:45;5.70;;;4.13;;
14007;SDS011;61651;45.508;12.232;2022-08-01T00:48:47;4.88;;;4.43;;
14007;SDS011;61651;45.508;12.232;2022-08-01T00:51:49;4.20;;;3.90;;
14007;SDS011;61651;45.508;12.232;2022-08-01T00:54:52;4.30;;;3.80;;
14007;SDS011;61651;45.508;12.232;2022-08-01T00:57:54;6.43;;;4.40;;
14007;SDS011;61651;45.508;12.232;2022-08-01T01:00:57;4.80;;;4.40;;
14007;SDS011;61651;45.508;12.232;2022-08-01T01:03:59;4.43;;;4.03;;
14007;SDS011;61651;45.508;12.232;2022-08-01T01:07:03;6.22;;;4.35;;
14007;SDS011;61651;45.508;12.232;2022-08-01T01:10:15;4.15;;;3.85;;
14007;SDS011;61651;45.508;12.232;2022-08-01T01:13:20;5.10;;;4.70;;
14007;SDS011;61651;45.508;12.232;2022-08-01T01:16:33;5.10;;;4.60;;
14007;SDS011;61651;45.508;12.232;2022-08-01T01:19:41;5.25;;;4.70;;
14007;SDS011;61651;45.508;12.232;2022-08-01T01:23:12;4.63;;;4.05;;
14007;SDS011;61651;45.508;12.232;2022-08-01T01:26:43;5.25;;;4.82;;
14007;SDS011;61651;45.508;12.232;2022-08-01T01:29:58;4.90;;;4.50;;
14007;SDS011;61651;45.508;12.232;2022-08-01T01:33:03;6.55;;;4.80;;
14007;SDS011;61651;45.508;12.232;2022-08-01T01:36:09;5.72;;;5.13;;
14007;SDS011;61651;45.508;12.232;2022-08-01T01:39:14;6.32;;;5.82;;
14007;SDS011;61651;45.508;12.232;2022-08-01T01:42:17;6.68;;;6.07;;
14007;SDS011;61651;45.508;12.232;2022-08-01T01:45:22;6.88;;;6.28;;
14007;SDS011;61651;45.508;12.232;2022-08-01T01:48:25;7.22;;;6.63;;
14007;SDS011;61651;45.508;12.232;2022-08-01T01:51:28;7.38;;;6.68;;
14007;SDS011;61651;45.508;12.232;2022-08-01T01:54:33;7.10;;;6.50;;
14007;SDS011;61651;45.508;12.232;2022-08-01T01:57:39;8.05;;;6.93;;
14007;SDS011;61651;45.508;12.232;2022-08-01T02:00:44;7.20;;;6.50;;
14007;SDS011;61651;45.508;12.232;2022-08-01T02:03:48;7.18;;;6.55;;
14007;SDS011;61651;45.508;12.232;2022-08-01T02:06:51;6.85;;;6.15;;
14007;SDS011;61651;45.508;12.232;2022-08-01T02:09:54;7.65;;;7.05;;
14007;SDS011;61651;45.508;12.232;2022-08-01T02:12:57;8.73;;;7.93;;
14007;SDS011;61651;45.508;12.232;2022-08-01T02:16:02;7.60;;;6.90;;
14007;SDS011;61651;45.508;12.232;2022-08-01T02:19:05;7.38;;;6.70;;
14007;SDS011;61651;45.508;12.232;2022-08-01T02:22:07;8.23;;;7.43;;
14007;SDS011;61651;45.508;12.232;2022-08-01T02:25:15;8.75;;;8.05;;
14007;SDS011;61651;45.508;12.232;2022-08-01T02:28:22;9.30;;;8.50;;
14007;SDS011;61651;45.508;12.232;2022-08-01T02:31:31;8.95;;;8.15;;
14007;SDS011;61651;45.508;12.232;2022-08-01T02:34:36;8.90;;;8.00;;
14007;SDS011;61651;45.508;12.232;2022-08-01T02:37:38;8.07;;;7.30;;
14007;SDS011;61651;45.508;12.232;2022-08-01T02:40:43;8.57;;;7.40;;
14007;SDS011;61651;45.508;12.232;2022-08-01T02:43:48;8.35;;;7.55;;
14007;SDS011;61651;45.508;12.232;2022-08-01T02:46:56;10.18;;;9.27;;
14007;SDS011;61651;45.508;12.232;2022-08-01T02:50:02;9.80;;;8.95;;
14007;SDS011;61651;45.508;12.232;2022-08-01T02:53:05;8.98;;;8.20;;
14007;SDS011;61651;45.508;12.232;2022-08-01T02:56:10;9.98;;;9.18;;
14007;SDS011;61651;45.508;12.232;2022-08-01T02:59:16;10.93;;;9.93;;
14007;SDS011;61651;45.508;12.232;2022-08-01T03:02:21;10.38;;;9.48;;
14007;SDS011;61651;45.508;12.232;2022-08-01T03:05:25;9.75;;;8.95;;
14007;SDS011;61651;45.508;12.232;2022-08-01T03:08:28;8.82;;;8.05;;
14007;SDS011;61651;45.508;12.232;2022-08-01T03:11:31;12.10;;;10.52;;
14007;SDS011;61651;45.508;12.232;2022-08-01T03:14:36;11.25;;;10.15;;
14007;SDS011;61651;45.508;12.232;2022-08-01T03:17:43;10.82;;;9.82;;
14007;SDS011;61651;45.508;12.232;2022-08-01T03:20:46;11.20;;;10.27;;
14007;SDS011;61651;45.508;12.232;2022-08-01T03:23:50;13.50;;;11.95;;
14007;SDS011;61651;45.508;12.232;2022-08-01T03:26:57;11.55;;;10.45;;
14007;SDS011;61651;45.508;12.232;2022-08-01T03:29:59;12.98;;;11.63;;
14007;SDS011;61651;45.508;12.232;2022-08-01T03:33:07;12.55;;;11.35;;
14007;SDS011;61651;45.508;12.232;2022-08-01T03:36:10;11.40;;;10.35;;
14007;SDS011;61651;45.508;12.232;2022-08-01T03:39:14;14.32;;;12.93;;
14007;SDS011;61651;45.508;12.232;2022-08-01T03:42:19;13.85;;;12.55;;
14007;SDS011;61651;45.508;12.232;2022-08-01T03:45:26;12.70;;;11.52;;
14007;SDS011;61651;45.508;12.232;2022-08-01T03:48:35;13.20;;;11.90;;
14007;SDS011;61651;45.508;12.232;2022-08-01T03:51:40;12.50;;;11.43;;
14007;SDS011;61651;45.508;12.232;2022-08-01T03:54:43;13.60;;;12.20;;
14007;SDS011;61651;45.508;12.232;2022-08-01T03:57:48;12.20;;;10.85;;
14007;SDS011;61651;45.508;12.232;2022-08-01T04:00:52;14.10;;;12.68;;
14007;SDS011;61651;45.508;12.232;2022-08-01T04:03:57;13.82;;;12.43;;
14007;SDS011;61651;45.508;12.232;2022-08-01T04:07:00;14.02;;;12.15;;
14007;SDS011;61651;45.508;12.232;2022-08-01T04:10:06;14.65;;;13.27;;
14007;SDS011;61651;45.508;12.232;2022-08-01T04:13:08;14.73;;;13.32;;
14007;SDS011;61651;45.508;12.232;2022-08-01T04:16:10;13.07;;;11.35;;
14007;SDS011;61651;45.508;12.232;2022-08-01T04:19:14;13.88;;;12.55;;
14007;SDS011;61651;45.508;12.232;2022-08-01T04:22:15;13.90;;;12.60;;
14007;SDS011;61651;45.508;12.232;2022-08-01T04:25:19;13.98;;;12.77;;
14007;SDS011;61651;45.508;12.232;2022-08-01T04:28:28;13.32;;;12.13;;
14007;SDS011;61651;45.508;12.232;2022-08-01T04:31:31;13.90;;;12.48;;
14007;SDS011;61651;45.508;12.232;2022-08-01T04:34:37;12.95;;;11.75;;
14007;SDS011;61651;45.508;12.232;2022-08-01T04:37:41;14.07;;;12.68;;
14007;SDS011;61651;45.508;12.232;2022-08-01T04:40:45;13.60;;;12.30;;
14007;SDS011;61651;45.508;12.232;2022-08-01T04:43:48;13.27;;;11.98;;
14007;SDS011;61651;45.508;12.232;2022-08-01T04:46:51;13.40;;;12.00;;
14007;SDS011;61651;45.508;12.232;2022-08-01T04:49:56;13.38;;;12.07;;
14007;SDS011;61651;45.508;12.232;2022-08-01T04:52:58;15.27;;;13.88;;
14007;SDS011;61651;45.508;12.232;2022-08-01T04:56:03;15.75;;;14.15;;
14007;SDS011;61651;45.508;12.232;2022-08-01T04:59:05;16.00;;;14.30;;
14007;SDS011;61651;45.508;12.232;2022-08-01T05:02:25;15.85;;;13.85;;
14007;SDS011;61651;45.508;12.232;2022-08-01T05:05:30;14.48;;;13.18;;
14007;SDS011;61651;45.508;12.232;2022-08-01T05:08:32;12.82;;;11.65;;
14007;SDS011;61651;45.508;12.232;2022-08-01T05:11:36;14.70;;;13.20;;
14007;SDS011;61651;45.508;12.232;2022-08-01T05:14:38;13.93;;;12.15;;
14007;SDS011;61651;45.508;12.232;2022-08-01T05:17:40;12.68;;;11.57;;
14007;SDS011;61651;45.508;12.232;2022-08-01T05:20:44;14.55;;;13.05;;
14007;SDS011;61651;45.508;12.232;2022-08-01T05:23:47;15.13;;;12.70;;
14007;SDS011;61651;45.508;12.232;2022-08-01T05:26:49;13.63;;;12.32;;
14007;SDS011;61651;45.508;12.232;2022-08-01T05:29:51;12.32;;;11.18;;
14007;SDS011;61651;45.508;12.232;2022-08-01T05:32:53;13.45;;;11.98;;
14007;SDS011;61651;45.508;12.232;2022-08-01T05:36:10;12.43;;;11.02;;
14007;SDS011;61651;45.508;12.232;2022-08-01T05:39:13;10.98;;;9.85;;
14007;SDS011;61651;45.508;12.232;2022-08-01T05:42:15;10.90;;;9.80;;
14007;SDS011;61651;45.508;12.232;2022-08-01T05:45:17;10.93;;;9.93;;
14007;SDS011;61651;45.508;12.232;2022-08-01T05:48:19;12.30;;;11.30;;
14007;SDS011;61651;45.508;12.232;2022-08-01T05:51:22;9.13;;;8.32;;
14007;SDS011;61651;45.508;12.232;2022-08-01T05:54:25;9.43;;;8.43;;
14007;SDS011;61651;45.508;12.232;2022-08-01T05:57:26;9.45;;;8.38;;
14007;SDS011;61651;45.508;12.232;2022-08-01T06:00:28;9.68;;;8.82;;
14007;SDS011;61651;45.508;12.232;2022-08-01T06:03:31;8.80;;;8.05;;
14007;SDS011;61651;45.508;12.232;2022-08-01T06:06:35;9.18;;;8.38;;
14007;SDS011;61651;45.508;12.232;2022-08-01T06:09:37;9.45;;;8.65;;
14007;SDS011;61651;45.508;12.232;2022-08-01T06:12:39;8.35;;;7.65;;
14007;SDS011;61651;45.508;12.232;2022-08-01T06:15:41;8.38;;;7.55;;
14007;SDS011;61651;45.508;12.232;2022-08-01T06:18:42;7.13;;;6.53;;
14007;SDS011;61651;45.508;12.232;2022-08-01T06:21:46;7.07;;;6.45;;
14007;SDS011;61651;45.508;12.232;2022-08-01T06:24:48;7.68;;;6.97;;
14007;SDS011;61651;45.508;12.232;2022-08-01T06:27:50;8.38;;;7.72;;
14007;SDS011;61651;45.508;12.232;2022-08-01T06:30:52;7.50;;;6.75;;
14007;SDS011;61651;45.508;12.232;2022-08-01T06:33:54;6.38;;;5.72;;
14007;SDS011;61651;45.508;12.232;2022-08-01T06:36:58;7.60;;;6.90;;
14007;SDS011;61651;45.508;12.232;2022-08-01T06:40:00;6.07;;;5.53;;
14007;SDS011;61651;45.508;12.232;2022-08-01T06:43:03;7.15;;;6.45;;
14007;SDS011;61651;45.508;12.232;2022-08-01T06:46:05;6.55;;;5.90;;
14007;SDS011;61651;45.508;12.232;2022-08-01T06:49:07;6.65;;;5.93;;
14007;SDS011;61651;45.508;12.232;2022-08-01T06:52:11;7.40;;;5.57;;
14007;SDS011;61651;45.508;12.232;2022-08-01T06:55:13;6.28;;;5.68;;
14007;SDS011;61651;45.508;12.232;2022-08-01T06:58:15;6.80;;;5.82;;
14007;SDS011;61651;45.508;12.232;2022-08-01T07:01:17;6.78;;;6.18;;
14007;SDS011;61651;45.508;12.232;2022-08-01T07:04:19;7.05;;;5.95;;
14007;SDS011;61651;45.508;12.232;2022-08-01T07:07:23;6.00;;;5.07;;
14007;SDS011;61651;45.508;12.232;2022-08-01T07:10:25;6.07;;;5.57;;
14007;SDS011;61651;45.508;12.232;2022-08-01T07:13:27;6.45;;;5.03;;
14007;SDS011;61651;45.508;12.232;2022-08-01T07:16:34;5.55;;;5.13;;
14007;SDS011;61651;45.508;12.232;2022-08-01T07:19:36;5.43;;;4.97;;
14007;SDS011;61651;45.508;12.232;2022-08-01T07:22:40;4.90;;;4.30;;
14007;SDS011;61651;45.508;12.232;2022-08-01T07:25:42;5.00;;;4.47;;
14007;SDS011;61651;45.508;12.232;2022-08-01T07:28:44;4.53;;;4.05;;
14007;SDS011;61651;45.508;12.232;2022-08-01T07:31:46;4.78;;;3.58;;
14007;SDS011;61651;45.508;12.232;2022-08-01T07:34:48;4.28;;;3.92;;
14007;SDS011;61651;45.508;12.232;2022-08-01T07:37:51;3.83;;;3.53;;
14007;SDS011;61651;45.508;12.232;2022-08-01T07:40:53;4.72;;;4.22;;
14007;SDS011;61651;45.508;12.232;2022-08-01T07:43:55;4.20;;;3.63;;
14007;SDS011;61651;45.508;12.232;2022-08-01T07:46:57;4.35;;;3.85;;
14007;SDS011;61651;45.508;12.232;2022-08-01T07:49:59;7.07;;;4.00;;
14007;SDS011;61651;45.508;12.232;2022-08-01T07:53:03;4.43;;;3.20;;
14007;SDS011;61651;45.508;12.232;2022-08-01T07:57:47;3.55;;;3.25;;
14007;SDS011;61651;45.508;12.232;2022-08-01T07:59:28;3.30;;;3.00;;
14007;SDS011;61651;45.508;12.232;2022-08-01T08:02:30;4.68;;;3.10;;
14007;SDS011;61651;45.508;12.232;2022-08-01T08:05:32;3.95;;;2.38;;
14007;SDS011;61651;45.508;12.232;2022-08-01T08:08:37;3.25;;;2.78;;
14007;SDS011;61651;45.508;12.232;2022-08-01T08:11:39;3.03;;;2.80;;
14007;SDS011;61651;45.508;12.232;2022-08-01T08:14:42;3.33;;;2.78;;
14007;SDS011;61651;45.508;12.232;2022-08-01T08:17:44;2.90;;;2.60;;
14007;SDS011;61651;45.508;12.232;2022-08-01T08:20:46;4.43;;;3.05;;
14007;SDS011;61651;45.508;12.232;2022-08-01T08:23:49;2.78;;;2.40;;
14007;SDS011;61651;45.508;12.232;2022-08-01T08:27:09;2.85;;;2.60;;
14007;SDS011;61651;45.508;12.232;2022-08-01T08:30:11;2.72;;;2.53;;
14007;SDS011;61651;45.508;12.232;2022-08-01T08:33:13;2.88;;;2.42;;
14007;SDS011;61651;45.508;12.232;2022-08-01T08:36:15;2.65;;;2.42;;
14007;SDS011;61651;45.508;12.232;2022-08-01T08:39:19;2.53;;;2.33;;
14007;SDS011;61651;45.508;12.232;2022-08-01T08:42:21;3.65;;;2.67;;
14007;SDS011;61651;45.508;12.232;2022-08-01T08:45:23;2.70;;;2.20;;
14007;SDS011;61651;45.508;12.232;2022-08-01T08:48:25;2.42;;;2.20;;
14007;SDS011;61651;45.508;12.232;2022-08-01T08:51:28;2.35;;;2.25;;
14007;SDS011;61651;45.508;12.232;2022-08-01T08:54:33;3.40;;;2.22;;
14007;SDS011;61651;45.508;12.232;2022-08-01T08:57:39;2.20;;;2.10;;
14007;SDS011;61651;45.508;12.232;2022-08-01T09:00:41;2.38;;;2.20;;
14007;SDS011;61651;45.508;12.232;2022-08-01T09:03:43;3.65;;;2.00;;
14007;SDS011;61651;45.508;12.232;2022-08-01T09:06:45;2.40;;;2.20;;
14007;SDS011;61651;45.508;12.232;2022-08-01T09:09:49;2.53;;;2.30;;
14007;SDS011;61651;45.508;12.232;2022-08-01T09:13:04;3.35;;;3.08;;
14007;SDS011;61651;45.508;12.232;2022-08-01T09:16:15;3.88;;;2.30;;
14007;SDS011;61651;45.508;12.232;2022-08-01T09:19:19;2.30;;;2.10;;
14007;SDS011;61651;45.508;12.232;2022-08-01T09:22:23;2.60;;;2.40;;
14007;SDS011;61651;45.508;12.232;2022-08-01T09:25:27;2.17;;;2.08;;
14007;SDS011;61651;45.508;12.232;2022-08-01T09:28:33;2.38;;;2.17;;
14007;SDS011;61651;45.508;12.232;2022-08-01T09:31:40;5.45;;;2.10;;
14007;SDS011;61651;45.508;12.232;2022-08-01T09:34:42;2.50;;;1.95;;
14007;SDS011;61651;45.508;12.232;2022-08-01T09:37:46;3.03;;;1.88;;
14007;SDS011;61651;45.508;12.232;2022-08-01T09:40:51;2.47;;;2.27;;
14007;SDS011;61651;45.508;12.232;2022-08-01T09:43:54;1.77;;;1.67;;
14007;SDS011;61651;45.508;12.232;2022-08-01T09:46:56;1.95;;;1.65;;
14007;SDS011;61651;45.508;12.232;2022-08-01T09:49:58;2.75;;;2.05;;
14007;SDS011;61651;45.508;12.232;2022-08-01T09:53:14;2.78;;;1.85;;
14007;SDS011;61651;45.508;12.232;2022-08-01T09:56:18;2.50;;;1.95;;
14007;SDS011;61651;45.508;12.232;2022-08-01T09:59:22;3.35;;;2.10;;
14007;SDS011;61651;45.508;12.232;2022-08-01T10:02:37;1.80;;;1.70;;
14007;SDS011;61651;45.508;12.232;2022-08-01T10:05:40;2.15;;;2.03;;
14007;SDS011;61651;45.508;12.232;2022-08-01T10:08:45;1.85;;;1.70;;
14007;SDS011;61651;45.508;12.232;2022-08-01T10:11:49;3.05;;;1.70;;
14007;SDS011;61651;45.508;12.232;2022-08-01T10:14:51;1.80;;;1.70;;
14007;SDS011;61651;45.508;12.232;2022-08-01T10:17:55;3.40;;;1.90;;
14007;SDS011;61651;45.508;12.232;2022-08-01T10:20:59;1.90;;;1.77;;
14007;SDS011;61651;45.508;12.232;2022-08-01T10:24:02;2.58;;;1.77;;
14007;SDS011;61651;45.508;12.232;2022-08-01T10:27:08;2.38;;;1.63;;
14007;SDS011;61651;45.508;12.232;2022-08-01T10:30:11;1.67;;;1.58;;
14007;SDS011;61651;45.508;12.232;2022-08-01T10:33:14;2.03;;;1.58;;
14007;SDS011;61651;45.508;12.232;2022-08-01T10:36:17;1.70;;;1.60;;
14007;SDS011;61651;45.508;12.232;2022-08-01T10:39:21;1.65;;;1.48;;
14007;SDS011;61651;45.508;12.232;2022-08-01T10:42:25;2.22;;;1.50;;
14007;SDS011;61651;45.508;12.232;2022-08-01T10:45:27;1.80;;;1.70;;
14007;SDS011;61651;45.508;12.232;2022-08-01T10:48:33;1.58;;;1.48;;
14007;SDS011;61651;45.508;12.232;2022-08-01T10:51:42;1.55;;;1.45;;
14007;SDS011;61651;45.508;12.232;2022-08-01T10:54:45;1.55;;;1.45;;
14007;SDS011;61651;45.508;12.232;2022-08-01T10:57:49;1.92;;;1.50;;
14007;SDS011;61651;45.508;12.232;2022-08-01T11:04:32;2.08;;;1.58;;
14007;SDS011;61651;45.508;12.232;2022-08-01T11:07:43;1.80;;;1.70;;
14007;SDS011;61651;45.508;12.232;2022-08-01T11:10:49;1.60;;;1.50;;
14007;SDS011;61651;45.508;12.232;2022-08-01T11:14:03;3.15;;;2.03;;
14007;SDS011;61651;45.508;12.232;2022-08-01T11:20:35;2.38;;;1.77;;
14007;SDS011;61651;45.508;12.232;2022-08-01T11:23:46;1.77;;;1.67;;
14007;SDS011;61651;45.508;12.232;2022-08-01T11:30:23;1.73;;;1.60;;
14007;SDS011;61651;45.508;12.232;2022-08-01T11:36:49;2.10;;;1.70;;
14007;SDS011;61651;45.508;12.232;2022-08-01T11:40:24;2.60;;;1.67;;
14007;SDS011;61651;45.508;12.232;2022-08-01T11:43:28;2.38;;;1.58;;
14007;SDS011;61651;45.508;12.232;2022-08-01T11:49:57;2.55;;;2.10;;
14007;SDS011;61651;45.508;12.232;2022-08-01T11:53:00;2.72;;;1.80;;
14007;SDS011;61651;45.508;12.232;2022-08-01T11:56:03;1.70;;;1.60;;
14007;SDS011;61651;45.508;12.232;2022-08-01T11:59:05;2.53;;;1.60;;
14007;SDS011;61651;45.508;12.232;2022-08-01T12:02:16;3.50;;;1.75;;
14007;SDS011;61651;45.508;12.232;2022-08-01T12:05:19;1.80;;;1.70;;
14007;SDS011;61651;45.508;12.232;2022-08-01T12:08:24;2.88;;;1.67;;
14007;SDS011;61651;45.508;12.232;2022-08-01T12:11:27;1.95;;;1.63;;
14007;SDS011;61651;45.508;12.232;2022-08-01T12:14:29;1.52;;;1.42;;
14007;SDS011;61651;45.508;12.232;2022-08-01T12:17:37;1.55;;;1.45;;
14007;SDS011;61651;45.508;12.232;2022-08-01T12:20:41;1.90;;;1.45;;
14007;SDS011;61651;45.508;12.232;2022-08-01T12:23:45;1.30;;;1.20;;
14007;SDS011;61651;45.508;12.232;2022-08-01T12:26:46;1.77;;;1.60;;
14007;SDS011;61651;45.508;12.232;2022-08-01T12:29:49;1.50;;;1.40;;
14007;SDS011;61651;45.508;12.232;2022-08-01T12:32:53;1.83;;;1.58;;
14007;SDS011;61651;45.508;12.232;2022-08-01T12:35:55;1.70;;;1.60;;
14007;SDS011;61651;45.508;12.232;2022-08-01T12:38:58;1.77;;;1.67;;
14007;SDS011;61651;45.508;12.232;2022-08-01T12:42:05;1.70;;;1.60;;
14007;SDS011;61651;45.508;12.232;2022-08-01T12:45:08;1.95;;;1.85;;
14007;SDS011;61651;45.508;12.232;2022-08-01T12:48:13;1.60;;;1.50;;
14007;SDS011;61651;45.508;12.232;2022-08-01T12:51:25;3.92;;;1.55;;
14007;SDS011;61651;45.508;12.232;2022-08-01T12:54:27;1.65;;;1.55;;
14007;SDS011;61651;45.508;12.232;2022-08-01T12:57:29;2.42;;;1.52;;
14007;SDS011;61651;45.508;12.232;2022-08-01T13:00:32;1.63;;;1.52;;
14007;SDS011;61651;45.508;12.232;2022-08-01T13:03:36;1.83;;;1.70;;
14007;SDS011;61651;45.508;12.232;2022-08-01T13:06:38;3.10;;;1.70;;
14007;SDS011;61651;45.508;12.232;2022-08-01T13:09:48;1.27;;;1.20;;
14007;SDS011;61651;45.508;12.232;2022-08-01T13:12:51;1.92;;;1.60;;
14007;SDS011;61651;45.508;12.232;2022-08-01T13:16:02;1.50;;;1.40;;
14007;SDS011;61651;45.508;12.232;2022-08-01T13:19:07;1.52;;;1.42;;
14007;SDS011;61651;45.508;12.232;2022-08-01T13:22:17;2.08;;;1.20;;
14007;SDS011;61651;45.508;12.232;2022-08-01T13:25:23;1.50;;;1.40;;
14007;SDS011;61651;45.508;12.232;2022-08-01T13:28:25;1.48;;;1.38;;
14007;SDS011;61651;45.508;12.232;2022-08-01T13:31:31;1.50;;;1.40;;
14007;SDS011;61651;45.508;12.232;2022-08-01T13:34:35;1.65;;;1.55;;
14007;SDS011;61651;45.508;12.232;2022-08-01T13:37:37;3.58;;;1.90;;
14007;SDS011;61651;45.508;12.232;2022-08-01T13:40:40;1.52;;;1.40;;
14007;SDS011;61651;45.508;12.232;2022-08-01T13:43:42;2.38;;;1.50;;
14007;SDS011;61651;45.508;12.232;2022-08-01T13:46:45;1.60;;;1.50;;
14007;SDS011;61651;45.508;12.232;2022-08-01T13:49:49;1.50;;;1.40;;
14007;SDS011;61651;45.508;12.232;2022-08-01T13:52:51;3.53;;;2.22;;
14007;SDS011;61651;45.508;12.232;2022-08-01T13:55:53;1.58;;;1.48;;
14007;SDS011;61651;45.508;12.232;2022-08-01T13:58:55;1.65;;;1.50;;
14007;SDS011;61651;45.508;12.232;2022-08-01T14:01:57;1.90;;;1.55;;
14007;SDS011;61651;45.508;12.232;2022-08-01T14:05:01;1.50;;;1.40;;
14007;SDS011;61651;45.508;12.232;2022-08-01T14:08:03;1.55;;;1.45;;
14007;SDS011;61651;45.508;12.232;2022-08-01T14:11:05;2.30;;;1.40;;
14007;SDS011;61651;45.508;12.232;2022-08-01T14:14:07;2.85;;;1.30;;
14007;SDS011;61651;45.508;12.232;2022-08-01T14:17:09;1.50;;;1.40;;
14007;SDS011;61651;45.508;12.232;2022-08-01T14:20:13;2.72;;;1.40;;
14007;SDS011;61651;45.508;12.232;2022-08-01T14:23:15;1.73;;;1.40;;
14007;SDS011;61651;45.508;12.232;2022-08-01T14:26:17;1.92;;;1.83;;
14007;SDS011;61651;45.508;12.232;2022-08-01T14:29:19;1.55;;;1.45;;
14007;SDS011;61651;45.508;12.232;2022-08-01T14:32:21;1.48;;;1.38;;
14007;SDS011;61651;45.508;12.232;2022-08-01T14:35:24;1.30;;;1.20;;
14007;SDS011;61651;45.508;12.232;2022-08-01T14:38:26;1.75;;;1.38;;
14007;SDS011;61651;45.508;12.232;2022-08-01T14:41:28;1.50;;;1.40;;
14007;SDS011;61651;45.508;12.232;2022-08-01T14:44:30;2.70;;;1.38;;
14007;SDS011;61651;45.508;12.232;2022-08-01T14:47:32;1.50;;;1.40;;
14007;SDS011;61651;45.508;12.232;2022-08-01T14:50:48;2.88;;;1.48;;
14007;SDS011;61651;45.508;12.232;2022-08-01T14:53:50;1.73;;;1.63;;
14007;SDS011;61651;45.508;12.232;2022-08-01T14:56:53;1.35;;;1.25;;
14007;SDS011;61651;45.508;12.232;2022-08-01T14:59:55;1.50;;;1.40;;
14007;SDS011;61651;45.508;12.232;2022-08-01T15:02:57;1.30;;;1.20;;
14007;SDS011;61651;45.508;12.232;2022-08-01T15:06:00;1.50;;;1.40;;
14007;SDS011;61651;45.508;12.232;2022-08-01T15:09:03;1.50;;;1.40;;
14007;SDS011;61651;45.508;12.232;2022-08-01T15:12:05;2.00;;;1.50;;
14007;SDS011;61651;45.508;12.232;2022-08-01T15:15:08;1.50;;;1.35;;
14007;SDS011;61651;45.508;12.232;2022-08-01T15:18:10;1.60;;;1.50;;
14007;SDS011;61651;45.508;12.232;2022-08-01T15:21:14;2.20;;;1.35;;
14007;SDS011;61651;45.508;12.232;2022-08-01T15:24:16;1.90;;;1.13;;
14007;SDS011;61651;45.508;12.232;2022-08-01T15:27:18;1.60;;;1.30;;
14007;SDS011;61651;45.508;12.232;2022-08-01T15:30:21;1.42;;;1.33;;
14007;SDS011;61651;45.508;12.232;2022-08-01T15:33:23;1.30;;;1.20;;
14007;SDS011;61651;45.508;12.232;2022-08-01T15:36:26;2.42;;;1.30;;
14007;SDS011;61651;45.508;12.232;2022-08-01T15:39:28;1.92;;;1.20;;
14007;SDS011;61651;45.508;12.232;2022-08-01T15:42:30;1.73;;;1.40;;
14007;SDS011;61651;45.508;12.232;2022-08-01T15:45:32;1.58;;;1.00;;
14007;SDS011;61651;45.508;12.232;2022-08-01T15:48:34;1.30;;;1.20;;
14007;SDS011;61651;45.508;12.232;2022-08-01T15:51:38;2.83;;;1.48;;
14007;SDS011;61651;45.508;12.232;2022-08-01T15:54:40;1.30;;;1.20;;
14007;SDS011;61651;45.508;12.232;2022-08-01T15:57:42;1.20;;;1.10;;
14007;SDS011;61651;45.508;12.232;2022-08-01T16:00:44;4.45;;;1.20;;
14007;SDS011;61651;45.508;12.232;2022-08-01T16:03:46;1.50;;;1.40;;
14007;SDS011;61651;45.508;12.232;2022-08-01T16:06:49;1.58;;;1.45;;
14007;SDS011;61651;45.508;12.232;2022-08-01T16:09:51;1.55;;;1.38;;
14007;SDS011;61651;45.508;12.232;2022-08-01T16:12:53;2.90;;;1.40;;
14007;SDS011;61651;45.508;12.232;2022-08-01T16:15:55;1.30;;;1.20;;
14007;SDS011;61651;45.508;12.232;2022-08-01T16:18:58;1.35;;;1.20;;
14007;SDS011;61651;45.508;12.232;2022-08-01T16:22:01;1.42;;;1.30;;
14007;SDS011;61651;45.508;12.232;2022-08-01T16:25:04;1.50;;;1.40;;
14007;SDS011;61651;45.508;12.232;2022-08-01T16:28:06;1.67;;;1.50;;
14007;SDS011;61651;45.508;12.232;2022-08-01T16:31:09;1.35;;;1.20;;
14007;SDS011;61651;45.508;12.232;2022-08-01T16:34:11;1.40;;;1.30;;
14007;SDS011;61651;45.508;12.232;2022-08-01T16:37:14;1.20;;;1.20;;
14007;SDS011;61651;45.508;12.232;2022-08-01T16:40:16;2.55;;;1.45;;
14007;SDS011;61651;45.508;12.232;2022-08-01T16:43:18;1.50;;;1.40;;
14007;SDS011;61651;45.508;12.232;2022-08-01T16:46:21;3.60;;;1.70;;
14007;SDS011;61651;45.508;12.232;2022-08-01T16:49:24;2.65;;;1.70;;
14007;SDS011;61651;45.508;12.232;2022-08-01T16:52:27;1.52;;;1.40;;
14007;SDS011;61651;45.508;12.232;2022-08-01T16:55:29;1.67;;;1.58;;
14007;SDS011;61651;45.508;12.232;2022-08-01T16:58:31;1.55;;;1.40;;
14007;SDS011;61651;45.508;12.232;2022-08-01T17:01:33;1.33;;;1.23;;
14007;SDS011;61651;45.508;12.232;2022-08-01T17:04:35;2.17;;;1.20;;
14007;SDS011;61651;45.508;12.232;2022-08-01T17:07:39;1.60;;;1.50;;
14007;SDS011;61651;45.508;12.232;2022-08-01T17:10:41;2.70;;;1.92;;
14007;SDS011;61651;45.508;12.232;2022-08-01T17:13:43;4.05;;;1.70;;
14007;SDS011;61651;45.508;12.232;2022-08-01T17:16:45;1.48;;;1.38;;
14007;SDS011;61651;45.508;12.232;2022-08-01T17:19:47;1.50;;;1.40;;
14007;SDS011;61651;45.508;12.232;2022-08-01T17:22:51;1.40;;;1.30;;
14007;SDS011;61651;45.508;12.232;2022-08-01T17:25:53;2.75;;;1.33;;
14007;SDS011;61651;45.508;12.232;2022-08-01T17:28:55;1.48;;;1.30;;
14007;SDS011;61651;45.508;12.232;2022-08-01T17:31:57;1.75;;;1.55;;
14007;SDS011;61651;45.508;12.232;2022-08-01T17:34:59;1.70;;;1.60;;
14007;SDS011;61651;45.508;12.232;2022-08-01T17:38:02;1.52;;;1.42;;
14007;SDS011;61651;45.508;12.232;2022-08-01T17:41:04;1.58;;;1.48;;
14007;SDS011;61651;45.508;12.232;2022-08-01T17:44:06;1.70;;;1.60;;
14007;SDS011;61651;45.508;12.232;2022-08-01T17:47:09;2.50;;;2.05;;
14007;SDS011;61651;45.508;12.232;2022-08-01T17:50:11;1.80;;;1.70;;
14007;SDS011;61651;45.508;12.232;2022-08-01T17:53:14;2.30;;;1.40;;
14007;SDS011;61651;45.508;12.232;2022-08-01T17:56:16;1.92;;;1.50;;
14007;SDS011;61651;45.508;12.232;2022-08-01T17:59:18;1.67;;;1.58;;
14007;SDS011;61651;45.508;12.232;2022-08-01T18:02:21;1.70;;;1.60;;
14007;SDS011;61651;45.508;12.232;2022-08-01T18:05:23;1.73;;;1.57;;
14007;SDS011;61651;45.508;12.232;2022-08-01T18:08:27;2.15;;;1.40;;
14007;SDS011;61651;45.508;12.232;2022-08-01T18:11:29;1.88;;;1.45;;
14007;SDS011;61651;45.508;12.232;2022-08-01T18:14:31;1.70;;;1.40;;
14007;SDS011;61651;45.508;12.232;2022-08-01T18:17:33;1.42;;;1.33;;
14007;SDS011;61651;45.508;12.232;2022-08-01T18:20:35;1.60;;;1.50;;
14007;SDS011;61651;45.508;12.232;2022-08-01T18:23:39;1.70;;;1.60;;